Aérodrome :
LOGIN :

S'inscrire | Disclaimer

   EN    FR    IT 

 










Légende :    VFR   VFR Marginal   IFR   IFR Intensif   IFR Très Intensif
Visi : 
Plafond : 
>= 8 km
>= 3000ft
5 à 8 km
1000 à 3000 ft
1500m à 5 km
500 à 1000 ft
800 à 1500m
200 à 500 ft
< 800m
< 200 ft
Symboles :   Orages  Brouillard  Fortes neiges  Fortes précipitations  Vent > 20 kt
SIGMETs :   Divers  Orages  Givrage  Turbulence  Onde Orograph.  Cendres Volcan.






- Altitude de l'aérodrome : 1895 ft


LSMM - Meiringen

DERNIER METAR :
  • 220050Z AUTO 09007KT 060V120 9999NDV FEW004 BKN013 BKN044 12/12 Q1023 RMK

METARs EXPIRÉS :
  • 220020Z AUTO 11007KT 9999NDV SCT012 BKN016 OVC024 12/12 Q1023 RMK
  • 212350Z AUTO 00000KT 9999NDV SCT012 OVC018 12/12 Q1023 RMK
  • 212320Z AUTO 00000KT 9999NDV BKN019 OVC027 12/12 Q1023 RMK
  • 212250Z AUTO 23003KT 9999NDV FEW013 SCT021 BKN026 12/12 Q1023 RMK
  • 212220Z AUTO 24006KT 9000NDV DZ FEW010 SCT029 BKN034 12/11 Q1023 RMK

Prévision TAF périmée.



MET'MAP, la Météo Aéronautique d'un coup d'oeil ! - Copyright ORBIFLY Décembre 2007 - Disclaimer

ORBIFLY MET'MAP TEAM :

Programmation & Développement : Alexandra Zaïnal
Conception & Développement : Baudouin d'Aumeries
Co-Programmation & Développement : Marc-Olivier Méhu
Soutien technique & logistique : Manuel Goepfert

Contact : metmap@orbifly.com




SOURCES & CREDITS :

   NOAA